Time;durP1;ratioP1;P1;durP2;ratioP2;P2;SDS_P1;SDS_P2;PMS_P1;PMS_P2;Temp;Humidity;BMP_temperature;BMP_pressure;BME280_temperature;BME280_humidity;BME280_pressure;Samples;Min_cycle;Max_cycle;Signal;HPM_P1;HPM_P2
2021/06/05 00:01:25;;;;;;;2.25;0.80;;;;;;;15.30;100.00;94350.34;5073535;28;20301;-77
2021/06/05 00:03:54;;;;;;;1.45;0.70;;;;;;;15.42;100.00;94339.94;5073459;28;20264;-76
2021/06/05 00:06:21;;;;;;;0.60;0.60;;;;;;;15.48;100.00;94336.44;5073445;28;20290;-75
2021/06/05 00:08:48;;;;;;;2.13;0.88;;;;;;;15.42;100.00;94338.13;5073377;28;20206;-76
2021/06/05 00:11:17;;;;;;;2.58;0.90;;;;;;;15.30;100.00;94338.00;5073519;28;20264;-78
2021/06/05 00:13:45;;;;;;;1.80;0.77;;;;;;;15.23;100.00;94339.09;5073490;28;20213;-76
2021/06/05 00:16:16;;;;;;;1.30;0.80;;;;;;;15.22;100.00;94332.22;5073301;28;20199;-76
2021/06/05 00:18:42;;;;;;;1.70;0.85;;;;;;;15.20;100.00;94334.25;5073262;28;20203;-78
2021/06/05 00:21:08;;;;;;;1.85;0.70;;;;;;;15.32;100.00;94327.25;5072909;28;20685;-77
2021/06/05 00:23:34;;;;;;;3.55;0.70;;;;;;;15.30;100.00;94329.31;5073168;28;20362;-77
2021/06/05 00:26:00;;;;;;;1.33;0.93;;;;;;;15.26;100.00;94322.88;5073263;28;20206;-76
2021/06/05 00:28:28;;;;;;;1.15;0.68;;;;;;;15.41;100.00;94325.97;5073004;28;20195;-76
2021/06/05 00:30:54;;;;;;;0.82;0.80;;;;;;;15.42;100.00;94314.44;5072990;28;20718;-76
2021/06/05 00:33:21;;;;;;;2.38;0.88;;;;;;;15.45;100.00;94318.44;5072986;28;20207;-75
2021/06/05 00:35:47;;;;;;;1.42;0.82;;;;;;;15.53;100.00;94308.44;5072951;28;20195;-77
2021/06/05 00:38:13;;;;;;;4.03;0.80;;;;;;;15.61;100.00;94306.56;5072385;28;20268;-77
2021/06/05 00:40:42;;;;;;;2.15;0.90;;;;;;;15.67;100.00;94300.41;5072983;28;20199;-77
2021/06/05 00:43:10;;;;;;;1.10;0.65;;;;;;;15.65;100.00;94303.25;5073105;28;20291;-76
2021/06/05 00:45:39;;;;;;;1.33;0.60;;;;;;;15.60;100.00;94304.94;5072990;28;20654;-75
2021/06/05 00:48:06;;;;;;;1.65;0.70;;;;;;;15.56;100.00;94299.31;5072947;28;20198;-78
2021/06/05 00:50:33;;;;;;;1.85;0.70;;;;;;;15.46;100.00;94293.75;5072948;28;20649;-77
2021/06/05 00:53:00;;;;;;;1.98;0.80;;;;;;;15.29;100.00;94290.88;5072936;28;20206;-76
2021/06/05 00:55:30;;;;;;;3.95;1.10;;;;;;;15.18;100.00;94295.81;5075390;28;20212;-77
2021/06/05 00:57:56;;;;;;;7.07;0.95;;;;;;;15.16;100.00;94282.06;5073120;28;20245;-77
2021/06/05 01:00:29;;;;;;;1.20;0.80;;;;;;;15.18;100.00;94287.91;5072781;28;20199;-77
2021/06/05 01:02:58;;;;;;;3.53;1.33;;;;;;;15.21;100.00;94288.53;5072663;28;20325;-76
2021/06/05 01:05:24;;;;;;;1.50;0.70;;;;;;;15.31;100.00;94286.19;5072842;28;20199;-76
2021/06/05 01:07:51;;;;;;;1.45;0.73;;;;;;;15.37;100.00;94280.09;5072784;28;20337;-77
2021/06/05 01:10:21;;;;;;;0.60;0.60;;;;;;;15.32;100.00;94279.91;5072772;28;20308;-77
2021/06/05 01:12:53;;;;;;;0.90;0.70;;;;;;;15.42;100.00;94277.59;5072814;28;20628;-77
2021/06/05 01:15:24;;;;;;;1.92;0.70;;;;;;;15.52;100.00;94277.91;5072627;28;20705;-77
2021/06/05 01:17:55;;;;;;;1.75;0.90;;;;;;;15.53;100.00;94274.22;5072852;28;20213;-76
2021/06/05 01:20:33;;;;;;;1.45;0.80;;;;;;;15.60;97.67;94276.00;5072651;28;20256;-76
2021/06/05 01:23:34;;;;;;;2.10;0.60;;;;;;;15.63;100.00;94281.63;5072369;28;20288;-75
2021/06/05 01:26:10;;;;;;;0.90;0.60;;;;;;;15.62;99.02;94277.41;5056977;28;20599;-77
2021/06/05 01:28:42;;;;;;;0.80;0.70;;;;;;;15.70;99.14;94271.00;5072692;28;20285;-76
2021/06/05 01:31:13;;;;;;;1.52;0.63;;;;;;;15.63;100.00;94270.28;5072489;28;20731;-76
2021/06/05 01:33:42;;;;;;;0.60;0.60;;;;;;;15.61;99.88;94270.50;5072364;28;20202;-77
2021/06/05 01:36:10;;;;;;;1.48;0.80;;;;;;;15.64;100.00;94272.72;5072407;28;20605;-76
2021/06/05 01:38:40;;;;;;;1.50;0.68;;;;;;;15.53;100.00;94266.34;5054452;28;20195;-76
2021/06/05 01:41:09;;;;;;;1.15;0.70;;;;;;;15.53;100.00;94255.81;5072469;28;20253;-76
2021/06/05 01:43:36;;;;;;;2.75;0.80;;;;;;;15.57;99.64;94256.19;5072378;28;20600;-76
2021/06/05 01:46:03;;;;;;;0.90;0.60;;;;;;;15.59;100.00;94261.22;5072333;28;20203;-76
2021/06/05 01:48:29;;;;;;;3.38;0.60;;;;;;;15.62;100.00;94255.50;5072389;28;20210;-78
2021/06/05 01:51:00;;;;;;;1.05;0.70;;;;;;;15.59;100.00;94258.56;5075900;28;20203;-77
2021/06/05 01:53:33;;;;;;;0.95;0.60;;;;;;;15.60;99.82;94245.19;5076169;28;20210;-77
2021/06/05 01:56:07;;;;;;;0.60;0.50;;;;;;;15.58;100.00;94247.25;5076047;28;20351;-75
2021/06/05 01:58:36;;;;;;;0.98;0.63;;;;;;;15.51;100.00;94236.81;5075921;28;20568;-76
2021/06/05 02:01:03;;;;;;;1.50;0.80;;;;;;;15.59;100.00;94242.78;5075670;28;20198;-75
2021/06/05 02:03:29;;;;;;;2.58;0.80;;;;;;;15.49;100.00;94228.34;5075681;28;20206;-76
2021/06/05 02:05:55;;;;;;;1.50;0.70;;;;;;;15.41;100.00;94220.72;5075642;28;20692;-76
2021/06/05 02:08:24;;;;;;;1.40;0.88;;;;;;;15.52;98.45;94221.81;5075763;28;20207;-76
2021/06/05 02:10:55;;;;;;;1.02;0.75;;;;;;;15.51;99.15;94214.97;5075543;28;20198;-77
2021/06/05 02:13:26;;;;;;;2.38;0.77;;;;;;;15.53;98.02;94218.97;5075863;28;20581;-77
2021/06/05 02:15:57;;;;;;;2.50;0.60;;;;;;;15.51;99.11;94218.38;5075467;28;20209;-78
2021/06/05 02:18:28;;;;;;;3.05;0.77;;;;;;;15.58;98.96;94210.41;5075738;28;20199;-77
2021/06/05 02:20:57;;;;;;;1.25;0.73;;;;;;;15.81;92.88;94209.75;5075537;28;20285;-76
2021/06/05 02:23:27;;;;;;;0.55;0.52;;;;;;;16.03;92.49;94207.44;5075169;28;20618;-76
2021/06/05 02:25:54;;;;;;;1.02;0.63;;;;;;;15.90;93.55;94204.97;5075503;28;20198;-77
2021/06/05 02:28:21;;;;;;;2.65;0.45;;;;;;;15.93;91.92;94211.66;5075162;28;20662;-76
2021/06/05 02:30:49;;;;;;;0.65;0.55;;;;;;;15.83;95.13;94212.97;5075434;28;20207;-75
2021/06/05 02:33:17;;;;;;;2.35;0.60;;;;;;;15.73;98.69;94215.28;5075358;28;20199;-77
2021/06/05 02:35:45;;;;;;;1.15;0.70;;;;;;;15.56;99.54;94223.00;5075076;28;20670;-76
2021/06/05 02:38:15;;;;;;;1.35;0.60;;;;;;;15.49;98.93;94217.81;5075186;28;20585;-77
2021/06/05 02:40:42;;;;;;;1.83;0.50;;;;;;;15.37;100.00;94209.03;5075072;28;20214;-76
2021/06/05 02:43:11;;;;;;;1.38;0.50;;;;;;;15.36;99.52;94207.44;5074833;28;20745;-77
2021/06/05 02:45:42;;;;;;;1.00;0.60;;;;;;;15.34;100.00;94201.59;5075239;28;20207;-77
2021/06/05 02:48:09;;;;;;;0.93;0.50;;;;;;;15.38;99.93;94208.00;5075149;28;20416;-75
2021/06/05 02:50:41;;;;;;;1.15;0.55;;;;;;;15.38;97.11;94207.22;5075104;28;20203;-76
2021/06/05 02:53:07;;;;;;;1.33;0.50;;;;;;;15.47;97.22;94211.97;5074979;28;20211;-76
2021/06/05 02:55:34;;;;;;;0.90;0.65;;;;;;;15.47;97.54;94204.06;5074704;28;20211;-78
2021/06/05 02:58:00;;;;;;;2.78;0.50;;;;;;;15.47;96.85;94206.69;5077384;28;20641;-76
2021/06/05 03:00:31;;;;;;;1.50;0.60;;;;;;;15.43;98.91;94200.25;5074140;28;20195;-75
2021/06/05 03:02:58;;;;;;;2.75;0.55;;;;;;;15.34;98.35;94207.63;5074656;28;20226;-77
2021/06/05 03:05:24;;;;;;;1.17;0.50;;;;;;;15.29;99.22;94206.69;5074695;28;20285;-77
2021/06/05 03:07:52;;;;;;;1.58;0.60;;;;;;;15.36;98.09;94197.69;5074388;28;20206;-76
2021/06/05 03:10:18;;;;;;;1.17;0.63;;;;;;;15.26;98.64;94201.88;5074740;28;20199;-76
2021/06/05 03:12:44;;;;;;;1.58;0.50;;;;;;;15.26;98.40;94201.88;5074633;28;20198;-76
2021/06/05 03:15:12;;;;;;;0.98;0.50;;;;;;;15.13;100.00;94198.34;5074490;28;20203;-76
2021/06/05 03:17:38;;;;;;;0.80;0.57;;;;;;;15.15;99.06;94203.38;5074322;28;20202;-76
2021/06/05 03:20:07;;;;;;;4.43;0.63;;;;;;;15.14;99.54;94199.97;5074310;28;20203;-76
2021/06/05 03:22:33;;;;;;;0.77;0.50;;;;;;;15.18;98.68;94193.22;5074069;28;20251;-77
2021/06/05 03:25:01;;;;;;;2.40;0.98;;;;;;;15.16;99.88;94191.84;5074174;28;20237;-77
2021/06/05 03:27:27;;;;;;;1.05;0.50;;;;;;;15.16;100.00;94191.84;5074301;28;20285;-77
2021/06/05 03:29:53;;;;;;;0.70;0.50;;;;;;;15.09;100.00;94188.50;5074167;28;20265;-76
2021/06/05 03:32:19;;;;;;;1.95;0.70;;;;;;;15.02;100.00;94185.94;5074095;28;20202;-77
2021/06/05 03:34:45;;;;;;;0.50;0.50;;;;;;;15.05;99.78;94185.47;5074078;28;20206;-76
2021/06/05 03:37:11;;;;;;;1.92;0.50;;;;;;;15.18;97.49;94189.81;5073881;28;20199;-76
2021/06/05 03:39:37;;;;;;;0.65;0.40;;;;;;;15.25;98.17;94189.72;5073887;28;20206;-77
2021/06/05 03:42:06;;;;;;;0.80;0.45;;;;;;;15.03;100.00;94192.78;5073740;28;20727;-76
2021/06/05 03:44:32;;;;;;;0.90;0.60;;;;;;;14.86;100.00;94183.88;5073840;28;20199;-77
2021/06/05 03:46:58;;;;;;;0.50;0.40;;;;;;;14.78;100.00;94180.47;5074027;28;20202;-77
2021/06/05 03:49:24;;;;;;;0.65;0.55;;;;;;;14.73;100.00;94193.47;5073694;28;20199;-77
2021/06/05 03:51:50;;;;;;;1.65;0.73;;;;;;;14.68;100.00;94185.41;5073607;28;20199;-77
2021/06/05 03:54:16;;;;;;;3.33;0.52;;;;;;;14.70;100.00;94180.75;5074073;28;20247;-76
2021/06/05 03:56:42;;;;;;;0.63;0.50;;;;;;;14.71;100.00;94185.00;5073764;28;20203;-76
2021/06/05 03:59:10;;;;;;;0.60;0.50;;;;;;;14.77;100.00;94178.06;5073759;28;20237;-76
2021/06/05 04:01:37;;;;;;;1.42;0.52;;;;;;;14.89;100.00;94178.16;5073531;28;20222;-76
2021/06/05 04:04:03;;;;;;;0.65;0.50;;;;;;;14.88;100.00;94176.56;5073352;28;20272;-76
2021/06/05 04:06:30;;;;;;;1.25;0.70;;;;;;;14.87;100.00;94167.06;5073364;28;20646;-76
2021/06/05 04:08:58;;;;;;;0.60;0.60;;;;;;;14.91;100.00;94168.25;5073416;28;20206;-76
2021/06/05 04:11:26;;;;;;;0.63;0.63;;;;;;;14.95;100.00;94162.34;5073330;28;20213;-78
2021/06/05 04:13:52;;;;;;;1.85;0.47;;;;;;;14.94;100.00;94162.56;5073149;28;20214;-77
2021/06/05 04:16:20;;;;;;;2.28;0.50;;;;;;;14.89;100.00;94160.56;5073296;28;20202;-77
2021/06/05 04:18:46;;;;;;;1.45;0.70;;;;;;;14.90;100.00;94156.91;5073107;28;20627;-76
2021/06/05 04:21:14;;;;;;;0.63;0.60;;;;;;;14.96;100.00;94158.66;5073241;28;20206;-77
2021/06/05 04:23:41;;;;;;;1.52;0.50;;;;;;;14.97;100.00;94165.53;5073227;28;20230;-77
2021/06/05 04:26:07;;;;;;;0.55;0.50;;;;;;;15.04;100.00;94162.03;5073332;28;20199;-77
2021/06/05 04:28:36;;;;;;;0.70;0.70;;;;;;;15.10;100.00;94167.22;5073160;28;20293;-76
2021/06/05 04:31:03;;;;;;;0.80;0.70;;;;;;;15.15;100.00;94158.66;5072982;28;20199;-76
2021/06/05 04:33:30;;;;;;;0.80;0.60;;;;;;;15.16;100.00;94161.09;5072959;28;20221;-76
2021/06/05 04:35:59;;;;;;;0.70;0.63;;;;;;;15.17;100.00;94165.34;5073205;28;20210;-76
2021/06/05 04:38:25;;;;;;;0.95;0.70;;;;;;;15.22;100.00;94166.50;5073099;28;20205;-77
2021/06/05 04:40:52;;;;;;;5.38;0.90;;;;;;;15.30;100.00;94163.56;5073083;28;20568;-76
2021/06/05 04:43:19;;;;;;;0.68;0.60;;;;;;;15.39;100.00;94169.34;5072922;28;20280;-77
2021/06/05 04:45:45;;;;;;;0.40;0.40;;;;;;;15.49;100.00;94173.06;5072907;28;20238;-76
2021/06/05 04:48:12;;;;;;;2.47;0.50;;;;;;;15.54;100.00;94172.41;5072822;28;20543;-77
2021/06/05 04:50:42;;;;;;;0.50;0.50;;;;;;;15.48;100.00;94168.81;5073105;28;20199;-77
2021/06/05 04:53:09;;;;;;;3.90;0.60;;;;;;;15.52;100.00;94175.25;5072490;28;20770;-76
2021/06/05 04:55:35;;;;;;;2.90;0.50;;;;;;;15.44;100.00;94177.41;5073169;28;20206;-78
2021/06/05 04:58:03;;;;;;;0.68;0.60;;;;;;;15.49;100.00;94180.97;5074933;28;20199;-77
2021/06/05 05:00:32;;;;;;;1.52;0.50;;;;;;;15.60;100.00;94189.94;5072605;28;20208;-77
2021/06/05 05:02:58;;;;;;;1.40;0.57;;;;;;;15.65;100.00;94182.16;5072461;28;20454;-77
2021/06/05 05:05:24;;;;;;;0.80;0.52;;;;;;;15.86;100.00;94186.19;5072821;28;20293;-77
2021/06/05 05:07:52;;;;;;;1.73;0.50;;;;;;;15.88;100.00;94186.78;5072728;28;20199;-76
2021/06/05 05:10:22;;;;;;;0.38;0.38;;;;;;;15.96;100.00;94192.78;5072878;28;20199;-76
2021/06/05 05:12:48;;;;;;;5.65;0.50;;;;;;;16.11;100.00;94190.53;5072628;28;20207;-75
2021/06/05 05:15:14;;;;;;;1.58;1.02;;;;;;;16.19;100.00;94194.69;5072579;28;20203;-76
2021/06/05 05:17:40;;;;;;;2.88;0.60;;;;;;;16.11;100.00;94203.69;5072786;28;20210;-75
2021/06/05 05:20:09;;;;;;;0.40;0.40;;;;;;;16.25;100.00;94199.88;5072502;28;20199;-76
2021/06/05 05:22:35;;;;;;;1.00;0.50;;;;;;;16.14;100.00;94210.34;5072438;28;20230;-77
2021/06/05 05:25:03;;;;;;;1.30;0.60;;;;;;;16.01;100.00;94209.50;5075071;28;20234;-77
2021/06/05 05:27:29;;;;;;;2.17;0.60;;;;;;;16.03;100.00;94207.44;5076386;28;20199;-76
2021/06/05 05:29:55;;;;;;;2.15;0.70;;;;;;;16.14;100.00;94212.97;5076644;28;20298;-76
2021/06/05 05:32:21;;;;;;;3.25;0.95;;;;;;;16.02;100.00;94210.28;5076524;28;20233;-77
2021/06/05 05:34:47;;;;;;;0.95;0.60;;;;;;;16.07;100.00;94218.31;5076454;28;20203;-76
2021/06/05 05:37:13;;;;;;;1.80;0.50;;;;;;;16.14;100.00;94213.78;5076133;28;20553;-76
2021/06/05 05:39:39;;;;;;;1.58;0.50;;;;;;;16.10;100.00;94212.63;5076259;28;20203;-76
2021/06/05 05:42:08;;;;;;;5.90;0.77;;;;;;;16.15;100.00;94209.31;5076039;28;20737;-76
2021/06/05 05:44:34;;;;;;;2.55;0.80;;;;;;;16.24;100.00;94198.25;5076257;28;20205;-75
2021/06/05 05:47:00;;;;;;;0.80;0.70;;;;;;;16.37;100.00;94201.69;5076286;28;20198;-75
2021/06/05 05:49:26;;;;;;;1.52;0.60;;;;;;;16.52;100.00;94204.75;5076077;28;20240;-77
2021/06/05 05:51:53;;;;;;;1.67;0.63;;;;;;;16.39;100.00;94200.47;5076042;28;20203;-77
2021/06/05 05:54:19;;;;;;;3.30;0.70;;;;;;;16.37;100.00;94209.59;5076479;28;20558;-76
2021/06/05 05:56:45;;;;;;;0.50;0.40;;;;;;;16.55;100.00;94203.47;5075832;28;20676;-76
2021/06/05 05:59:15;;;;;;;0.95;0.50;;;;;;;16.77;100.00;94209.00;5076114;28;20267;-77
2021/06/05 06:01:41;;;;;;;0.60;0.50;;;;;;;16.68;100.00;94216.44;5076116;28;20385;-77
2021/06/05 06:04:07;;;;;;;2.33;0.68;;;;;;;16.86;100.00;94212.16;5075863;28;20205;-76
2021/06/05 06:06:33;;;;;;;0.77;0.50;;;;;;;16.93;100.00;94218.91;5075854;28;20204;-76
2021/06/05 06:09:00;;;;;;;0.65;0.60;;;;;;;17.05;100.00;94215.47;5075809;28;20637;-78
2021/06/05 06:11:26;;;;;;;1.52;0.55;;;;;;;17.31;100.00;94225.56;5075500;28;20662;-77
2021/06/05 06:13:52;;;;;;;1.80;0.60;;;;;;;17.55;100.00;94228.16;5075663;28;20257;-78
2021/06/05 06:16:20;;;;;;;1.10;0.50;;;;;;;17.62;100.00;94238.59;5075602;28;20206;-77
2021/06/05 06:18:47;;;;;;;1.20;0.60;;;;;;;17.59;100.00;94229.31;5075589;28;20199;-76
2021/06/05 06:21:16;;;;;;;1.25;0.80;;;;;;;17.46;100.00;94240.13;5075382;28;20209;-76
2021/06/05 06:23:43;;;;;;;0.50;0.43;;;;;;;17.51;100.00;94237.59;5075235;28;20238;-76
2021/06/05 06:26:12;;;;;;;2.47;0.50;;;;;;;17.43;100.00;94240.59;5074861;28;20430;-77
2021/06/05 06:28:40;;;;;;;2.13;0.70;;;;;;;17.60;100.00;94238.81;5075555;28;20205;-76
2021/06/05 06:31:08;;;;;;;0.88;0.55;;;;;;;17.89;100.00;94241.56;5075398;28;20289;-76
2021/06/05 06:33:36;;;;;;;0.73;0.50;;;;;;;18.18;100.00;94237.09;5075468;28;20203;-76
2021/06/05 06:36:03;;;;;;;1.50;0.68;;;;;;;18.28;100.00;94247.03;5074088;28;20203;-76
2021/06/05 06:38:34;;;;;;;0.95;0.65;;;;;;;18.49;100.00;94246.38;5075124;28;20205;-77
2021/06/05 06:41:01;;;;;;;2.10;0.70;;;;;;;18.77;95.28;94244.72;5075173;28;20261;-78
2021/06/05 06:43:29;;;;;;;1.45;0.80;;;;;;;18.83;92.97;94241.13;5075189;28;20260;-77
2021/06/05 06:45:55;;;;;;;1.08;0.82;;;;;;;18.49;92.16;94249.00;5075209;28;20206;-77
2021/06/05 06:48:21;;;;;;;1.85;0.57;;;;;;;18.74;91.01;94247.06;5075014;28;20214;-76
2021/06/05 06:50:50;;;;;;;2.10;0.77;;;;;;;18.84;88.97;94253.34;5074801;28;20214;-76
2021/06/05 06:53:16;;;;;;;1.27;0.80;;;;;;;18.76;88.98;94248.41;5077235;28;20286;-76
2021/06/05 06:55:42;;;;;;;2.60;0.90;;;;;;;18.71;92.34;94255.47;5075022;28;20191;-77
2021/06/05 06:58:09;;;;;;;1.13;0.77;;;;;;;18.60;92.02;94260.59;5074970;28;20245;-75
2021/06/05 07:00:38;;;;;;;2.15;0.80;;;;;;;18.86;90.12;94261.81;5074684;28;20201;-77
2021/06/05 07:03:05;;;;;;;1.50;0.80;;;;;;;18.94;86.60;94259.84;5074882;28;20233;-75
2021/06/05 07:05:31;;;;;;;1.92;0.80;;;;;;;18.64;89.83;94268.84;5074530;28;20232;-76
2021/06/05 07:08:09;;;;;;;0.50;0.47;;;;;;;18.39;89.73;94270.00;5074744;28;20206;-76
2021/06/05 07:10:35;;;;;;;2.55;1.00;;;;;;;18.08;92.88;94279.97;5074668;28;20206;-77
2021/06/05 07:13:05;;;;;;;2.15;0.80;;;;;;;17.86;93.30;94281.63;5074521;28;20206;-75
2021/06/05 07:15:31;;;;;;;2.58;0.63;;;;;;;17.61;91.77;94284.53;5074557;28;20206;-76
2021/06/05 07:17:57;;;;;;;1.55;0.90;;;;;;;17.66;93.04;94282.00;5074489;28;20289;-79
2021/06/05 07:20:23;;;;;;;1.63;0.88;;;;;;;17.60;92.49;94282.91;5074438;28;20207;-76
2021/06/05 07:22:49;;;;;;;6.25;1.00;;;;;;;17.66;91.27;94288.06;5074347;28;20227;-77
2021/06/05 07:25:17;;;;;;;2.88;0.75;;;;;;;17.90;92.38;94291.53;5074119;28;20771;-76
2021/06/05 07:27:42;;;;;;;1.80;0.77;;;;;;;17.95;93.58;94290.81;5074226;28;20203;-76
2021/06/05 07:30:10;;;;;;;1.45;0.80;;;;;;;17.89;95.05;94292.56;5074120;28;20203;-76
2021/06/05 07:32:36;;;;;;;1.65;0.90;;;;;;;17.83;94.33;94290.78;5073936;28;20658;-78
2021/06/05 07:35:02;;;;;;;2.83;0.90;;;;;;;17.89;94.54;94291.75;5074205;28;20214;-79
2021/06/05 07:37:28;;;;;;;1.75;0.88;;;;;;;18.06;93.75;94292.63;5074215;28;20195;-77
2021/06/05 07:39:54;;;;;;;2.15;0.98;;;;;;;18.31;93.48;94286.22;5073983;28;20199;-77
2021/06/05 07:42:22;;;;;;;5.00;1.15;;;;;;;18.29;94.17;94290.94;5073987;28;20685;-80
2021/06/05 07:44:49;;;;;;;2.00;1.00;;;;;;;18.43;91.47;94297.53;5073846;28;20195;-80
2021/06/05 07:47:15;;;;;;;2.95;0.98;;;;;;;18.41;94.64;94291.69;5073393;28;20237;-76
2021/06/05 07:49:41;;;;;;;4.78;1.30;;;;;;;18.27;94.09;94298.31;5073908;28;20230;-79
2021/06/05 07:52:10;;;;;;;2.70;0.80;;;;;;;18.34;94.65;94295.53;5073849;28;20199;-79
2021/06/05 07:54:36;;;;;;;1.40;0.82;;;;;;;18.46;95.73;94297.06;5073645;28;20195;-78
2021/06/05 07:57:03;;;;;;;2.25;0.80;;;;;;;18.54;94.57;94301.19;5073610;28;20202;-80
2021/06/05 07:59:30;;;;;;;2.22;1.00;;;;;;;18.23;95.27;94294.53;5084091;28;20284;-78
2021/06/05 08:01:57;;;;;;;3.00;1.00;;;;;;;18.28;95.63;94302.56;5093215;28;20225;-76
2021/06/05 08:04:23;;;;;;;1.77;0.95;;;;;;;18.57;91.94;94297.25;5093801;28;20209;-81
2021/06/05 08:06:50;;;;;;;0.90;0.80;;;;;;;19.16;90.06;94295.13;5093572;28;20706;-76
2021/06/05 08:09:16;;;;;;;2.75;0.95;;;;;;;19.24;88.25;94299.22;5093603;28;20206;-79
2021/06/05 08:11:42;;;;;;;2.67;0.80;;;;;;;19.17;89.06;94302.03;5093630;28;20212;-77
2021/06/05 08:14:08;;;;;;;3.25;0.68;;;;;;;19.16;89.59;94302.25;5093848;28;20202;-80
2021/06/05 08:16:39;;;;;;;3.10;1.10;;;;;;;18.85;89.52;94299.94;5093722;28;20206;-78
2021/06/05 08:19:07;;;;;;;2.95;0.93;;;;;;;19.11;87.71;94297.69;5092662;28;20429;-77
2021/06/05 08:21:33;;;;;;;6.47;1.25;;;;;;;19.06;88.46;94296.81;5093416;28;20212;-77
2021/06/05 08:23:59;;;;;;;5.10;1.30;;;;;;;19.04;88.42;94297.06;5093117;28;20234;-78
2021/06/05 08:26:26;;;;;;;5.20;0.93;;;;;;;19.20;86.96;94296.25;5093313;28;20197;-78
2021/06/05 08:28:52;;;;;;;2.97;0.80;;;;;;;19.37;84.79;94290.16;5093230;28;20736;-77
2021/06/05 08:31:20;;;;;;;2.88;0.90;;;;;;;18.99;87.71;94297.75;5093419;28;20561;-77
2021/06/05 08:33:48;;;;;;;0.88;0.68;;;;;;;18.98;86.96;94290.06;5093467;28;20213;-78
2021/06/05 08:36:16;;;;;;;2.10;1.00;;;;;;;19.08;88.29;94290.22;5093333;28;20209;-77
2021/06/05 08:38:42;;;;;;;2.88;0.93;;;;;;;19.19;86.77;94299.94;5093173;28;20267;-76
2021/06/05 08:41:17;;;;;;;2.42;1.10;;;;;;;19.09;86.33;94299.78;5093026;28;20198;-76
2021/06/05 08:43:46;;;;;;;2.17;1.15;;;;;;;19.13;85.63;94292.16;5092940;28;20770;-77
2021/06/05 08:46:15;;;;;;;3.78;1.38;;;;;;;19.46;85.90;94293.97;5093205;28;20214;-77
2021/06/05 08:48:41;;;;;;;3.00;0.80;;;;;;;19.34;84.61;94295.94;5093139;28;20664;-78
2021/06/05 08:51:20;;;;;;;1.85;0.88;;;;;;;19.46;84.17;94296.63;5092933;28;20204;-79
2021/06/05 08:53:47;;;;;;;2.25;0.82;;;;;;;19.74;83.95;94300.19;5092420;28;20198;-78
2021/06/05 08:56:17;;;;;;;2.65;0.93;;;;;;;19.83;83.40;94296.09;5092753;28;20648;-79
2021/06/05 08:58:46;;;;;;;2.55;0.85;;;;;;;19.55;83.65;94294.34;5085912;28;20198;-80
2021/06/05 09:01:15;;;;;;;2.55;1.00;;;;;;;19.86;82.70;94292.97;5071669;28;20430;-78
2021/06/05 09:03:43;;;;;;;1.65;0.90;;;;;;;19.94;82.91;94289.88;5072643;28;20593;-79
2021/06/05 09:06:19;;;;;;;1.70;0.80;;;;;;;19.46;83.02;94293.19;5079628;28;20206;-79
2021/06/05 09:08:46;;;;;;;1.00;0.73;;;;;;;19.89;82.44;94294.34;5092990;28;20198;-80
2021/06/05 09:11:14;;;;;;;1.45;0.80;;;;;;;20.21;80.41;94297.09;5093102;28;20628;-83
2021/06/05 09:13:41;;;;;;;2.67;0.90;;;;;;;20.34;79.25;94299.38;5093513;28;20209;-81
2021/06/05 09:16:35;;;;;;;2.05;0.75;;;;;;;19.86;81.03;94294.81;5092846;28;20259;-78
2021/06/05 09:19:12;;;;;;;3.67;0.95;;;;;;;20.06;81.12;94296.94;5092426;28;20198;-82
2021/06/05 09:21:42;;;;;;;1.13;0.80;;;;;;;20.45;81.68;94304.78;5092879;28;20205;-78
2021/06/05 09:24:16;;;;;;;2.05;0.73;;;;;;;20.27;82.17;94308.59;5092624;28;20230;-79
2021/06/05 09:26:45;;;;;;;3.20;0.50;;;;;;;20.49;81.46;94309.34;5092641;28;20661;-79
2021/06/05 09:29:14;;;;;;;1.92;0.88;;;;;;;20.01;79.45;94310.13;5092402;28;20664;-79
2021/06/05 09:31:55;;;;;;;1.63;0.90;;;;;;;19.46;82.01;94309.06;5092696;28;20206;-79
2021/06/05 09:34:23;;;;;;;1.85;1.00;;;;;;;19.49;86.07;94309.38;5092857;28;20202;-78
2021/06/05 09:36:50;;;;;;;5.68;0.98;;;;;;;19.70;85.75;94313.16;5092401;28;20202;-77
2021/06/05 09:39:36;;;;;;;1.05;0.80;;;;;;;19.70;84.75;94309.66;5092515;28;20209;-78
2021/06/05 09:42:03;;;;;;;4.47;1.00;;;;;;;19.29;83.67;94314.38;5092614;28;20234;-77
2021/06/05 09:44:39;;;;;;;3.20;0.93;;;;;;;19.18;85.49;94313.41;5092589;28;20202;-77
2021/06/05 09:47:19;;;;;;;1.80;1.00;;;;;;;18.94;84.76;94313.56;5092479;28;20212;-76
2021/06/05 09:49:47;;;;;;;1.25;0.85;;;;;;;19.23;85.77;94316.97;5092397;28;20557;-76
2021/06/05 09:52:21;;;;;;;1.42;0.95;;;;;;;19.04;85.07;94310.28;5092478;28;20217;-78
2021/06/05 09:54:50;;;;;;;1.38;0.60;;;;;;;18.58;88.14;94314.75;5092589;28;20202;-77
2021/06/05 09:57:23;;;;;;;1.13;0.90;;;;;;;18.62;90.59;94310.59;5092232;28;20198;-79
2021/06/05 10:00:02;;;;;;;2.60;0.90;;;;;;;18.65;88.74;94313.56;5092250;28;20194;-77
2021/06/05 10:02:29;;;;;;;1.25;0.80;;;;;;;18.94;88.33;94313.56;5092047;28;20236;-77
2021/06/05 10:05:10;;;;;;;2.28;0.70;;;;;;;18.77;90.02;94308.22;5092239;28;20289;-78
2021/06/05 10:07:38;;;;;;;2.13;0.95;;;;;;;18.40;89.84;94307.78;5092463;28;20205;-76
2021/06/05 10:10:12;;;;;;;5.15;1.20;;;;;;;18.05;93.09;94312.16;5093100;28;20672;-77
2021/06/05 10:12:42;;;;;;;2.15;0.80;;;;;;;17.97;94.96;94314.34;5095901;28;20247;-77
2021/06/05 10:15:11;;;;;;;2.60;0.85;;;;;;;17.67;94.85;94302.06;5095737;28;20285;-77
2021/06/05 10:17:45;;;;;;;9.90;1.30;;;;;;;17.67;96.66;94305.53;5095870;28;20202;-76
2021/06/05 10:20:22;;;;;;;2.67;1.10;;;;;;;17.46;98.48;94311.41;5095678;28;20712;-77
2021/06/05 10:22:52;;;;;;;3.38;1.25;;;;;;;17.38;100.00;94313.31;5095646;28;20633;-76
2021/06/05 10:25:29;;;;;;;2.58;1.40;;;;;;;17.27;100.00;94310.69;5095546;28;20324;-76
2021/06/05 10:27:57;;;;;;;2.97;1.50;;;;;;;16.88;100.00;94319.00;5095832;28;20418;-76
2021/06/05 10:30:41;;;;;;;2.92;1.20;;;;;;;16.48;100.00;94324.03;5095619;28;20251;-75
2021/06/05 10:33:11;;;;;;;2.13;1.33;;;;;;;16.13;100.00;94333.34;5095558;28;20285;-76
2021/06/05 10:35:40;;;;;;;5.38;1.50;;;;;;;15.99;100.00;94334.56;5095450;28;20206;-78
2021/06/05 10:38:11;;;;;;;1.38;1.17;;;;;;;15.79;100.00;94327.66;5095238;28;20202;-78
2021/06/05 10:40:37;;;;;;;3.13;1.50;;;;;;;15.61;100.00;94343.41;5095561;28;20283;-77
2021/06/05 10:43:06;;;;;;;4.35;1.63;;;;;;;15.55;100.00;94347.69;5095472;28;20234;-78
2021/06/05 10:45:34;;;;;;;6.72;1.90;;;;;;;15.61;100.00;94341.56;5095130;28;20205;-77
2021/06/05 10:48:05;;;;;;;7.38;2.22;;;;;;;15.56;100.00;94346.69;5095213;28;20199;-76
2021/06/05 10:50:34;;;;;;;6.97;2.30;;;;;;;15.49;100.00;94346.75;5095038;28;20209;-76
2021/06/05 10:53:08;;;;;;;4.70;2.42;;;;;;;15.48;100.00;94341.69;5095372;28;20204;-76
2021/06/05 10:55:43;;;;;;;8.25;2.17;;;;;;;15.56;100.00;94332.75;5095159;28;20210;-76
2021/06/05 10:58:24;;;;;;;5.10;2.03;;;;;;;15.62;100.00;94337.09;5095168;28;20208;-76
2021/06/05 11:00:52;;;;;;;6.90;4.15;;;;;;;15.65;100.00;94332.22;5094244;28;20206;-77
2021/06/05 11:03:44;;;;;;;5.10;2.63;;;;;;;15.57;100.00;94343.06;5076799;28;20234;-76
2021/06/05 11:06:12;;;;;;;4.05;2.58;;;;;;;15.64;100.00;94340.34;5066213;28;20205;-76
2021/06/05 11:08:44;;;;;;;6.40;2.40;;;;;;;15.76;100.00;94343.91;5074619;28;20229;-76
2021/06/05 11:11:37;;;;;;;2.92;1.92;;;;;;;15.78;100.00;94341.03;5074477;28;20202;-75
2021/06/05 11:14:10;;;;;;;3.78;2.38;;;;;;;15.76;100.00;94349.16;5074447;28;20726;-77
2021/06/05 11:17:09;;;;;;;3.67;1.92;;;;;;;15.81;100.00;94343.25;5074659;28;20202;-77
2021/06/05 11:19:38;;;;;;;4.30;2.22;;;;;;;15.79;100.00;94342.66;5074286;28;20646;-77
2021/06/05 11:22:07;;;;;;;8.32;1.70;;;;;;;15.66;100.00;94341.72;5073555;28;20746;-76
2021/06/05 11:24:34;;;;;;;6.40;1.88;;;;;;;15.63;100.00;94333.47;5074132;28;20299;-77
2021/06/05 11:27:03;;;;;;;2.53;1.90;;;;;;;15.54;100.00;94332.94;5074566;28;20209;-76
2021/06/05 11:29:54;;;;;;;2.90;2.00;;;;;;;15.34;100.00;94326.03;5074275;28;20205;-77
2021/06/05 11:32:48;;;;;;;4.18;2.45;;;;;;;15.41;100.00;94328.59;5074112;28;20653;-76
2021/06/05 11:35:32;;;;;;;4.70;2.30;;;;;;;15.53;100.00;94316.34;5073943;28;20650;-76
2021/06/05 11:38:00;;;;;;;3.95;2.30;;;;;;;15.66;100.00;94311.97;5074012;28;20202;-77